createdAt,value
2022-10-17T00:00:40.950Z,97.82
2022-10-17T00:01:40.920Z,97.82
2022-10-17T00:02:40.872Z,97.92
2022-10-17T00:03:40.875Z,97.92
2022-10-17T00:04:40.885Z,98.02
2022-10-17T00:05:40.803Z,97.62
2022-10-17T00:06:40.788Z,97.41
2022-10-17T00:07:40.840Z,97.52
2022-10-17T00:08:40.850Z,97.52
2022-10-17T00:09:40.882Z,97.47
2022-10-17T00:10:41.863Z,97.31
2022-10-17T00:11:40.853Z,97.00
2022-10-17T00:12:40.835Z,96.80
2022-10-17T00:13:40.876Z,96.19
2022-10-17T00:14:40.796Z,96.64
2022-10-17T00:15:40.851Z,96.64
2022-10-17T00:16:40.830Z,96.54
2022-10-17T00:17:40.768Z,96.54
2022-10-17T00:18:40.798Z,96.54
2022-10-17T00:19:40.737Z,96.64
2022-10-17T00:20:40.736Z,96.64
2022-10-17T00:21:40.823Z,96.84
2022-10-17T00:22:40.678Z,97.05
2022-10-17T00:23:40.632Z,96.95
2022-10-17T00:24:40.646Z,96.75
2022-10-17T00:25:40.633Z,97.25
2022-10-17T00:26:40.645Z,97.36
2022-10-17T00:27:40.650Z,97.77
2022-10-17T00:28:40.649Z,98.07
2022-10-17T00:29:40.615Z,98.27
2022-10-17T00:30:40.620Z,98.52
2022-10-17T00:31:40.737Z,98.73
2022-10-17T00:32:40.729Z,98.48
2022-10-17T00:33:40.669Z,98.68
2022-10-17T00:34:40.692Z,98.58
2022-10-17T00:35:40.586Z,98.89
2022-10-17T00:36:40.700Z,98.63
2022-10-17T00:37:40.590Z,98.27
2022-10-17T00:38:40.693Z,98.38
2022-10-17T00:39:40.611Z,98.99
2022-10-17T00:40:40.601Z,98.48
2022-10-17T00:41:40.594Z,98.27
2022-10-17T00:42:40.630Z,98.79
2022-10-17T00:43:40.506Z,99.40
2022-10-17T00:44:40.470Z,99.99
2022-10-17T00:45:40.607Z,99.99
2022-10-17T00:46:40.463Z,99.99
2022-10-17T00:47:40.492Z,99.99
2022-10-17T00:48:40.512Z,99.99
2022-10-17T00:49:40.563Z,99.80
2022-10-17T00:50:40.548Z,99.14
2022-10-17T00:51:40.541Z,98.47
2022-10-17T00:52:40.512Z,98.77
2022-10-17T00:53:40.521Z,97.90
2022-10-17T00:54:40.563Z,98.31
2022-10-17T00:55:40.579Z,98.31
2022-10-17T00:56:40.505Z,98.47
2022-10-17T00:57:40.426Z,98.21
2022-10-17T00:58:40.486Z,98.41
2022-10-17T00:59:40.528Z,98.11
2022-10-17T01:00:40.535Z,98.68
2022-10-17T01:01:41.525Z,99.08
2022-10-17T01:02:40.366Z,99.18
2022-10-17T01:03:40.467Z,98.77
2022-10-17T01:04:40.352Z,98.00
2022-10-17T01:05:40.393Z,98.11
2022-10-17T01:06:40.321Z,98.15
2022-10-17T01:07:40.350Z,98.15
2022-10-17T01:08:40.322Z,99.27
2022-10-17T01:09:40.422Z,98.77
2022-10-17T01:10:40.427Z,98.66
2022-10-17T01:11:40.365Z,99.07
2022-10-17T01:12:40.389Z,99.18
2022-10-17T01:13:40.464Z,99.18
2022-10-17T01:14:40.360Z,99.38
2022-10-17T01:15:40.372Z,99.99
2022-10-17T01:16:40.386Z,99.79
2022-10-17T01:17:40.335Z,99.99
2022-10-17T01:18:40.503Z,99.99
2022-10-17T01:19:40.334Z,99.99
2022-10-17T01:20:40.359Z,99.99
2022-10-17T01:21:40.411Z,99.99
2022-10-17T01:22:40.211Z,99.99
2022-10-17T01:23:40.270Z,99.99
2022-10-17T01:24:40.220Z,99.99
2022-10-17T01:25:40.179Z,99.99
2022-10-17T01:26:40.293Z,99.89
2022-10-17T01:27:40.343Z,99.64
2022-10-17T01:28:40.388Z,99.95
2022-10-17T01:29:40.268Z,99.99
2022-10-17T01:30:40.259Z,99.99
2022-10-17T01:31:40.231Z,99.99
2022-10-17T01:32:40.268Z,99.99
2022-10-17T01:33:40.279Z,99.99
2022-10-17T01:34:40.222Z,99.99
2022-10-17T01:35:40.237Z,99.90
2022-10-17T01:36:40.230Z,98.68
2022-10-17T01:37:40.146Z,99.43
2022-10-17T01:38:40.165Z,99.58
2022-10-17T01:39:42.637Z,99.99
2022-10-17T01:40:40.124Z,99.64
2022-10-17T01:41:40.229Z,99.74
2022-10-17T01:42:40.045Z,99.43
2022-10-17T01:43:40.125Z,99.13
2022-10-17T01:44:40.176Z,99.43
2022-10-17T01:45:40.241Z,99.69
2022-10-17T01:46:40.128Z,99.99
2022-10-17T01:47:40.140Z,99.99
2022-10-17T01:48:40.116Z,99.99
2022-10-17T01:49:40.130Z,99.99
2022-10-17T01:50:40.107Z,99.99
2022-10-17T01:51:40.071Z,99.99
2022-10-17T01:52:40.085Z,99.99
2022-10-17T01:53:40.063Z,99.99
2022-10-17T01:54:40.114Z,99.99
2022-10-17T01:55:40.061Z,99.99
2022-10-17T01:56:40.076Z,99.99
2022-10-17T01:57:39.983Z,99.99
2022-10-17T01:58:39.954Z,99.99
2022-10-17T01:59:40.028Z,99.99
2022-10-17T02:00:40.008Z,99.99
2022-10-17T02:01:40.069Z,99.99
2022-10-17T02:02:40.046Z,99.99
2022-10-17T02:03:40.022Z,99.99
2022-10-17T02:04:40.027Z,99.99
2022-10-17T02:05:40.042Z,99.99
2022-10-17T02:06:40.063Z,99.99
2022-10-17T02:07:39.996Z,99.99
2022-10-17T02:08:40.017Z,99.99
2022-10-17T02:09:39.973Z,99.99
2022-10-17T02:10:39.984Z,99.99
2022-10-17T02:11:40.022Z,99.99
2022-10-17T02:12:39.963Z,99.99
2022-10-17T02:13:39.931Z,99.99
2022-10-17T02:14:39.848Z,99.99
2022-10-17T02:15:39.832Z,99.99
2022-10-17T02:16:39.981Z,99.99
2022-10-17T02:17:39.853Z,99.99
2022-10-17T02:18:39.922Z,99.99
2022-10-17T02:19:39.920Z,99.99
2022-10-17T02:20:39.891Z,99.99
2022-10-17T02:21:39.880Z,99.99
2022-10-17T02:22:40.244Z,99.99
2022-10-17T02:23:39.932Z,99.99
2022-10-17T02:24:39.852Z,99.99
2022-10-17T02:25:39.895Z,99.99
2022-10-17T02:26:39.830Z,99.99
2022-10-17T02:27:39.950Z,99.99
2022-10-17T02:28:39.973Z,99.99
2022-10-17T02:29:39.842Z,99.99
2022-10-17T02:30:39.793Z,99.99
2022-10-17T02:31:39.886Z,99.99
2022-10-17T02:32:39.831Z,99.99
2022-10-17T02:33:39.814Z,99.99
2022-10-17T02:34:39.762Z,99.99
2022-10-17T02:35:39.761Z,99.99
2022-10-17T02:36:39.697Z,99.99
2022-10-17T02:37:39.666Z,99.99
2022-10-17T02:38:39.753Z,99.74
2022-10-17T02:39:39.652Z,99.99
2022-10-17T02:40:39.661Z,99.99
2022-10-17T02:41:39.700Z,99.68
2022-10-17T02:42:39.635Z,99.99
2022-10-17T02:43:39.639Z,99.99
2022-10-17T02:44:39.641Z,99.99
2022-10-17T02:45:39.719Z,99.99
2022-10-17T02:46:39.714Z,99.99
2022-10-17T02:47:39.737Z,99.99
2022-10-17T02:48:39.804Z,99.99
2022-10-17T02:49:39.726Z,99.99
2022-10-17T02:50:39.774Z,99.43
2022-10-17T02:51:39.676Z,99.18
2022-10-17T02:52:39.652Z,99.27
2022-10-17T02:53:39.630Z,99.18
2022-10-17T02:54:39.670Z,99.38
2022-10-17T02:55:39.560Z,99.58
2022-10-17T02:56:39.536Z,99.38
2022-10-17T02:57:39.562Z,99.99
2022-10-17T02:58:39.603Z,99.99
2022-10-17T02:59:39.610Z,99.99
2022-10-17T03:00:39.630Z,99.89
2022-10-17T03:01:39.592Z,99.99
2022-10-17T03:02:39.624Z,99.99
2022-10-17T03:03:39.579Z,99.99
2022-10-17T03:04:39.553Z,99.99
2022-10-17T03:05:39.551Z,99.99
2022-10-17T03:06:39.556Z,99.99
2022-10-17T03:07:39.547Z,99.99
2022-10-17T03:08:39.526Z,99.99
2022-10-17T03:09:39.436Z,99.99
2022-10-17T03:10:39.440Z,99.99
2022-10-17T03:11:39.430Z,99.99
2022-10-17T03:12:39.502Z,99.99
2022-10-17T03:13:39.980Z,99.99
2022-10-17T03:14:39.423Z,99.99
2022-10-17T03:15:39.429Z,99.99
2022-10-17T03:16:39.511Z,99.99
2022-10-17T03:17:39.502Z,99.99
2022-10-17T03:18:39.455Z,99.99
2022-10-17T03:19:39.468Z,99.99
2022-10-17T03:20:39.455Z,99.99
2022-10-17T03:21:39.453Z,99.99
2022-10-17T03:22:40.486Z,99.99
2022-10-17T03:23:39.446Z,99.99
2022-10-17T03:24:39.429Z,99.99
2022-10-17T03:25:39.451Z,99.99
2022-10-17T03:26:39.440Z,99.99
2022-10-17T03:27:39.587Z,99.99
2022-10-17T03:28:39.382Z,99.99
2022-10-17T03:29:39.304Z,99.99
2022-10-17T03:30:39.295Z,99.99
2022-10-17T03:31:39.416Z,99.99
2022-10-17T03:32:39.243Z,99.99
2022-10-17T03:33:39.406Z,99.99
2022-10-17T03:34:39.341Z,99.99
2022-10-17T03:35:39.373Z,99.99
2022-10-17T03:36:39.314Z,99.99
2022-10-17T03:37:39.351Z,99.99
2022-10-17T03:38:39.367Z,99.99
2022-10-17T03:39:39.305Z,99.99
2022-10-17T03:40:39.318Z,99.99
2022-10-17T03:41:39.289Z,99.99
2022-10-17T03:42:39.358Z,99.99
2022-10-17T03:43:39.293Z,99.99
2022-10-17T03:44:39.526Z,99.99
2022-10-17T03:45:39.270Z,99.99
2022-10-17T03:46:39.475Z,99.99
2022-10-17T03:47:39.513Z,99.99
2022-10-17T03:48:39.202Z,99.99
2022-10-17T03:49:39.194Z,99.99
2022-10-17T03:50:39.247Z,99.99
2022-10-17T03:51:39.161Z,99.99
2022-10-17T03:52:39.148Z,99.99
2022-10-17T03:53:40.276Z,99.99
2022-10-17T03:54:39.260Z,99.99
2022-10-17T03:55:39.202Z,99.99
2022-10-17T03:56:39.208Z,99.99
2022-10-17T03:57:41.167Z,99.99
2022-10-17T03:58:40.283Z,99.99
2022-10-17T03:59:39.220Z,99.99
2022-10-17T04:00:39.209Z,99.99
2022-10-17T04:01:39.263Z,99.99
2022-10-17T04:02:39.220Z,99.99
2022-10-17T04:03:39.181Z,99.99
2022-10-17T04:04:39.189Z,99.99
2022-10-17T04:05:39.254Z,99.99
2022-10-17T04:06:39.120Z,99.99
2022-10-17T04:07:39.080Z,99.99
2022-10-17T04:08:39.063Z,99.99
2022-10-17T04:09:39.007Z,99.99
2022-10-17T04:10:39.049Z,99.99
2022-10-17T04:11:39.083Z,99.99
2022-10-17T04:12:39.004Z,99.99
2022-10-17T04:13:39.002Z,99.99
2022-10-17T04:14:38.986Z,99.99
2022-10-17T04:15:38.982Z,99.99
2022-10-17T04:16:39.127Z,99.99
2022-10-17T04:17:39.079Z,99.99
2022-10-17T04:18:39.131Z,99.99
2022-10-17T04:19:39.030Z,99.99
2022-10-17T04:20:39.033Z,99.99
2022-10-17T04:21:39.027Z,99.99
2022-10-17T04:22:39.047Z,99.99
2022-10-17T04:23:39.017Z,99.99
2022-10-17T04:24:38.974Z,99.99
2022-10-17T04:25:39.023Z,99.99
2022-10-17T04:26:38.983Z,99.99
2022-10-17T04:27:39.034Z,99.99
2022-10-17T04:29:38.889Z,99.99
2022-10-17T04:30:41.188Z,99.99
2022-10-17T04:31:39.886Z,99.99
2022-10-17T04:32:39.076Z,99.99
2022-10-17T04:33:39.014Z,99.99
2022-10-17T04:34:38.944Z,99.99
2022-10-17T04:35:38.886Z,99.99
2022-10-17T04:36:38.981Z,99.99
2022-10-17T04:37:38.892Z,99.99
2022-10-17T04:38:38.943Z,99.99
2022-10-17T04:39:38.882Z,99.99
2022-10-17T04:40:38.907Z,99.99
2022-10-17T04:41:38.855Z,99.99
2022-10-17T04:42:38.874Z,99.99
2022-10-17T04:43:38.850Z,99.99
2022-10-17T04:44:38.879Z,99.99
2022-10-17T04:45:38.850Z,99.99
2022-10-17T04:46:38.852Z,99.99
2022-10-17T04:47:38.802Z,99.99
2022-10-17T04:48:38.723Z,99.99
2022-10-17T04:49:38.781Z,99.99
2022-10-17T04:50:38.778Z,99.99
2022-10-17T04:51:38.822Z,99.99
2022-10-17T04:52:38.796Z,99.99
2022-10-17T04:53:38.840Z,99.99
2022-10-17T04:54:38.780Z,99.99
2022-10-17T04:55:38.741Z,99.99
2022-10-17T04:56:38.774Z,99.99
2022-10-17T04:57:38.714Z,99.99
2022-10-17T04:58:38.751Z,99.99
2022-10-17T04:59:38.742Z,99.93
2022-10-17T05:00:38.809Z,99.52
2022-10-17T05:01:39.792Z,99.32
2022-10-17T05:02:38.744Z,99.02
2022-10-17T05:03:38.703Z,98.77
2022-10-17T05:04:38.681Z,98.66
2022-10-17T05:05:38.639Z,98.61
2022-10-17T05:06:38.605Z,98.91
2022-10-17T05:07:38.686Z,98.86
2022-10-17T05:08:38.743Z,99.27
2022-10-17T05:09:38.674Z,98.81
2022-10-17T05:10:38.724Z,98.50
2022-10-17T05:11:38.632Z,98.20
2022-10-17T05:12:38.688Z,98.36
2022-10-17T05:13:38.607Z,97.49
2022-10-17T05:14:38.630Z,97.12
2022-10-17T05:15:38.669Z,97.42
2022-10-17T05:16:38.705Z,97.37
2022-10-17T05:17:38.603Z,97.22
2022-10-17T05:18:38.608Z,97.83
2022-10-17T05:19:38.482Z,97.94
2022-10-17T05:20:38.498Z,98.45
2022-10-17T05:21:38.620Z,98.24
2022-10-17T05:22:41.245Z,98.04
2022-10-17T05:23:38.497Z,98.45
2022-10-17T05:24:38.500Z,98.35
2022-10-17T05:25:38.505Z,98.35
2022-10-17T05:26:38.457Z,98.29
2022-10-17T05:27:38.615Z,98.29
2022-10-17T05:28:38.599Z,98.54
2022-10-17T05:29:38.507Z,99.05
2022-10-17T05:30:38.502Z,98.70
2022-10-17T05:31:38.469Z,98.90
2022-10-17T05:32:38.710Z,98.90
2022-10-17T05:33:38.502Z,99.11
2022-10-17T05:34:39.485Z,99.01
2022-10-17T05:35:38.511Z,99.01
2022-10-17T05:36:38.483Z,98.90
2022-10-17T05:37:38.516Z,98.90
2022-10-17T05:38:38.483Z,98.60
2022-10-17T05:39:38.550Z,99.36
2022-10-17T05:40:38.438Z,99.52
2022-10-17T05:41:38.339Z,99.62
2022-10-17T05:43:38.433Z,99.99
2022-10-17T05:44:38.387Z,99.99
2022-10-17T05:45:38.403Z,99.99
2022-10-17T05:46:38.364Z,99.99
2022-10-17T05:47:38.394Z,99.99
2022-10-17T05:48:39.430Z,99.99
2022-10-17T05:49:48.349Z,99.99
2022-10-17T05:50:40.263Z,99.99
2022-10-17T05:52:38.343Z,99.99
2022-10-17T05:53:38.354Z,99.99
2022-10-17T05:54:38.397Z,99.99
2022-10-17T05:55:38.338Z,99.99
2022-10-17T05:56:38.313Z,99.99
2022-10-17T05:57:38.203Z,99.99
2022-10-17T05:58:49.771Z,99.99
2022-10-17T05:59:40.270Z,99.99
2022-10-17T06:00:38.386Z,99.99
2022-10-17T06:01:38.235Z,99.99
2022-10-17T06:02:38.252Z,99.99
2022-10-17T06:03:38.275Z,99.99
2022-10-17T06:04:38.291Z,99.99
2022-10-17T06:05:38.234Z,99.99
2022-10-17T06:06:38.217Z,99.99
2022-10-17T06:07:38.272Z,99.99
2022-10-17T06:08:38.237Z,99.99
2022-10-17T06:09:38.382Z,99.99
2022-10-17T06:10:38.290Z,99.99
2022-10-17T06:11:38.271Z,99.99
2022-10-17T06:12:38.187Z,99.99
2022-10-17T06:13:38.257Z,99.99
2022-10-17T06:14:38.180Z,99.99
2022-10-17T06:15:38.174Z,99.99
2022-10-17T06:16:38.091Z,99.99
2022-10-17T06:17:38.085Z,99.99
2022-10-17T06:18:38.113Z,99.99
2022-10-17T06:19:38.055Z,99.99
2022-10-17T06:20:39.753Z,99.99
2022-10-17T06:21:38.037Z,99.99
2022-10-17T06:22:38.052Z,99.99
2022-10-17T06:23:38.063Z,99.99
2022-10-17T06:24:38.070Z,99.99
2022-10-17T06:25:38.029Z,99.99
2022-10-17T06:26:38.118Z,99.99
2022-10-17T06:27:38.176Z,99.82
2022-10-17T06:28:38.191Z,99.99
2022-10-17T06:29:38.062Z,99.98
2022-10-17T06:30:38.086Z,99.57
2022-10-17T06:31:38.149Z,99.37
2022-10-17T06:32:38.070Z,99.16
2022-10-17T06:33:38.085Z,99.16
2022-10-17T06:34:38.031Z,98.96
2022-10-17T06:35:38.045Z,98.86
2022-10-17T06:36:37.941Z,99.06
2022-10-17T06:37:38.532Z,98.96
2022-10-17T06:38:37.981Z,98.86
2022-10-17T06:39:37.930Z,98.91
2022-10-17T06:40:37.920Z,99.02
2022-10-17T06:41:37.907Z,99.11
2022-10-17T06:42:37.930Z,99.02
2022-10-17T06:43:37.857Z,99.02
2022-10-17T06:44:37.908Z,98.81
2022-10-17T06:45:37.976Z,98.56
2022-10-17T06:46:37.948Z,98.46
2022-10-17T06:47:38.009Z,98.46
2022-10-17T06:48:37.946Z,98.11
2022-10-17T06:49:38.023Z,97.95
2022-10-17T06:50:38.004Z,97.64
2022-10-17T06:51:38.031Z,97.85
2022-10-17T06:52:37.994Z,98.15
2022-10-17T06:53:37.948Z,98.40
2022-10-17T06:54:37.892Z,99.02
2022-10-17T06:55:37.882Z,99.43
2022-10-17T06:56:37.886Z,98.56
2022-10-17T06:57:37.791Z,98.97
2022-10-17T06:58:37.906Z,98.11
2022-10-17T06:59:37.794Z,98.41
2022-10-17T07:00:37.866Z,98.00
2022-10-17T07:01:38.392Z,98.11
2022-10-17T07:02:37.797Z,97.65
2022-10-17T07:03:37.766Z,97.14
2022-10-17T07:04:37.799Z,96.63
2022-10-17T07:05:37.796Z,97.14
2022-10-17T07:06:37.753Z,97.55
2022-10-17T07:07:40.131Z,97.61
2022-10-17T07:08:39.722Z,96.89
2022-10-17T07:09:37.777Z,96.75
2022-10-17T07:10:37.877Z,97.16
2022-10-17T07:11:37.772Z,96.84
2022-10-17T07:12:37.758Z,96.50
2022-10-17T07:13:39.272Z,96.19
2022-10-17T07:14:38.778Z,96.35
2022-10-17T07:15:37.769Z,96.35
2022-10-17T07:16:37.755Z,95.79
2022-10-17T07:17:37.776Z,95.69
2022-10-17T07:18:37.721Z,96.76
2022-10-17T07:19:37.667Z,97.02
2022-10-17T07:20:37.663Z,96.51
2022-10-17T07:21:39.208Z,96.77
2022-10-17T07:22:37.629Z,96.72
2022-10-17T07:23:38.687Z,95.95
2022-10-17T07:24:37.797Z,95.50
2022-10-17T07:25:40.098Z,95.40
2022-10-17T07:26:38.714Z,95.09
2022-10-17T07:27:37.664Z,95.20
2022-10-17T07:28:37.724Z,95.00
2022-10-17T07:29:37.663Z,95.15
2022-10-17T07:30:37.730Z,94.54
2022-10-17T07:31:37.713Z,94.74
2022-10-17T07:32:37.639Z,94.80
2022-10-17T07:33:37.691Z,94.70
2022-10-17T07:34:37.625Z,94.29
2022-10-17T07:35:37.636Z,93.84
2022-10-17T07:36:37.615Z,94.66
2022-10-17T07:37:37.553Z,94.15
2022-10-17T07:38:37.633Z,94.25
2022-10-17T07:39:37.530Z,94.00
2022-10-17T07:40:37.600Z,94.21
2022-10-17T07:41:37.605Z,94.31
2022-10-17T07:43:37.621Z,94.26
2022-10-17T07:44:37.559Z,94.06
2022-10-17T07:45:37.573Z,94.17
2022-10-17T07:46:38.023Z,94.17
2022-10-17T07:47:37.563Z,93.71
2022-10-17T07:48:37.488Z,94.38
2022-10-17T07:49:37.545Z,92.80
2022-10-17T07:50:37.445Z,93.97
2022-10-17T07:51:37.595Z,94.07
2022-10-17T07:52:37.450Z,93.37
2022-10-17T07:53:37.550Z,92.86
2022-10-17T07:54:37.415Z,93.32
2022-10-17T07:55:37.419Z,93.52
2022-10-17T07:56:37.437Z,92.97
2022-10-17T07:57:37.372Z,92.71
2022-10-17T07:58:37.440Z,92.57
2022-10-17T07:59:37.382Z,92.47
2022-10-17T08:00:38.485Z,92.57
2022-10-17T08:01:37.498Z,92.57
2022-10-17T08:02:37.431Z,92.57
2022-10-17T08:03:37.448Z,92.72
2022-10-17T08:04:37.403Z,92.32
2022-10-17T08:05:37.453Z,92.52
2022-10-17T08:06:37.403Z,92.63
2022-10-17T08:07:37.385Z,92.72
2022-10-17T08:08:37.392Z,92.52
2022-10-17T08:09:37.417Z,91.97
2022-10-17T08:10:37.416Z,91.67
2022-10-17T08:11:37.393Z,91.77
2022-10-17T08:12:37.379Z,92.08
2022-10-17T08:13:37.346Z,91.87
2022-10-17T08:14:37.422Z,91.47
2022-10-17T08:15:37.380Z,91.63
2022-10-17T08:16:37.255Z,90.52
2022-10-17T08:17:37.244Z,91.42
2022-10-17T08:18:37.285Z,91.38
2022-10-17T08:19:38.370Z,91.22
2022-10-17T08:20:37.176Z,91.02
2022-10-17T08:21:37.311Z,91.08
2022-10-17T08:22:37.301Z,90.94
2022-10-17T08:23:37.315Z,89.87
2022-10-17T08:24:37.297Z,90.27
2022-10-17T08:25:37.332Z,90.37
2022-10-17T08:26:40.714Z,90.43
2022-10-17T08:27:39.306Z,89.72
2022-10-17T08:28:37.312Z,89.58
2022-10-17T08:29:38.305Z,89.78
2022-10-17T08:30:37.313Z,89.78
2022-10-17T08:31:37.191Z,90.79
2022-10-17T08:32:37.226Z,91.39
2022-10-17T08:33:37.218Z,91.03
2022-10-17T08:34:38.190Z,91.30
2022-10-17T08:35:37.167Z,91.19
2022-10-17T08:36:37.114Z,91.39
2022-10-17T08:37:37.079Z,90.85
2022-10-17T08:38:41.461Z,90.55
2022-10-17T08:39:38.054Z,90.24
2022-10-17T08:40:37.099Z,89.54
2022-10-17T08:41:37.110Z,89.50
2022-10-17T08:42:37.062Z,89.15
2022-10-17T08:43:37.067Z,88.89
2022-10-17T08:44:37.067Z,88.85
2022-10-17T08:45:37.133Z,88.04
2022-10-17T08:46:37.363Z,88.34
2022-10-17T08:47:37.109Z,88.34
2022-10-17T08:48:37.097Z,89.05
2022-10-17T08:49:37.118Z,88.90
2022-10-17T08:50:37.148Z,88.40
2022-10-17T08:51:37.061Z,87.90
2022-10-17T08:52:37.111Z,87.65
2022-10-17T08:53:37.119Z,87.45
2022-10-17T08:54:37.095Z,87.35
2022-10-17T08:55:39.990Z,86.91
2022-10-17T08:56:47.902Z,86.81
2022-10-17T08:57:39.018Z,87.11
2022-10-17T08:58:37.037Z,86.87
2022-10-17T08:59:36.934Z,86.36
2022-10-17T09:00:36.944Z,85.76
2022-10-17T10:21:16.696Z,71.29
2022-10-17T10:22:17.608Z,70.19
2022-10-17T10:23:17.690Z,71.89
2022-10-17T10:24:17.599Z,71.19
2022-10-17T10:25:17.681Z,71.79
2022-10-17T10:26:20.287Z,70.19
2022-10-17T10:27:18.663Z,69.46
2022-10-17T10:28:17.616Z,69.26
2022-10-17T10:29:17.584Z,68.36
2022-10-17T10:30:17.605Z,69.73
2022-10-17T10:31:17.575Z,67.83
2022-10-17T10:32:17.655Z,67.53
2022-10-17T10:33:17.578Z,66.83
2022-10-17T10:34:17.624Z,67.43
2022-10-17T10:35:17.585Z,68.52
2022-10-17T10:36:17.565Z,68.03
2022-10-17T10:37:17.675Z,68.82
2022-10-17T10:38:17.563Z,67.63
2022-10-17T10:39:17.600Z,68.03
2022-10-17T10:40:17.506Z,67.53
2022-10-17T10:41:17.428Z,66.13
2022-10-17T10:42:17.398Z,67.30
2022-10-17T10:43:18.514Z,67.49
2022-10-17T10:44:17.452Z,66.30
2022-10-17T10:45:29.229Z,67.40
2022-10-17T10:46:19.535Z,67.19
2022-10-17T10:47:17.504Z,65.80
2022-10-17T10:48:17.538Z,65.50
2022-10-17T10:49:17.492Z,67.30
2022-10-17T10:50:17.479Z,65.53
2022-10-17T10:51:17.432Z,67.69
2022-10-17T10:52:17.443Z,66.00
2022-10-17T10:53:17.435Z,65.90
2022-10-17T10:54:17.425Z,65.20
2022-10-17T10:55:17.379Z,66.20
2022-10-17T10:56:17.530Z,66.56
2022-10-17T10:57:17.511Z,66.86
2022-10-17T10:58:17.313Z,67.93
2022-10-17T10:59:18.680Z,64.54
2022-10-17T11:00:17.433Z,66.24
2022-10-17T11:01:17.499Z,65.94
2022-10-17T11:02:17.327Z,65.73
2022-10-17T11:03:17.494Z,66.73
2022-10-17T11:04:17.353Z,65.73
2022-10-17T11:05:17.473Z,66.70
2022-10-17T11:06:17.254Z,65.14
2022-10-17T11:07:17.298Z,64.71
2022-10-17T11:08:17.275Z,65.01
2022-10-17T11:09:17.240Z,64.11
2022-10-17T11:10:17.309Z,64.11
2022-10-17T11:11:17.193Z,64.97
2022-10-17T11:12:17.242Z,63.48
2022-10-17T11:13:17.465Z,64.78
2022-10-17T11:14:17.299Z,62.98
2022-10-17T11:15:17.408Z,64.18
2022-10-17T11:16:17.352Z,64.37
2022-10-17T11:17:17.418Z,63.98
2022-10-17T11:18:17.399Z,63.21
2022-10-17T11:19:17.368Z,63.01
2022-10-17T11:20:17.403Z,62.71
2022-10-17T11:21:17.403Z,63.08
2022-10-17T11:22:17.403Z,63.28
2022-10-17T11:23:17.401Z,62.98
2022-10-17T11:24:17.217Z,62.91
2022-10-17T11:25:17.182Z,63.88
2022-10-17T11:26:17.606Z,63.08
2022-10-17T11:27:17.149Z,60.79
2022-10-17T11:28:17.272Z,61.88
2022-10-17T11:29:17.298Z,61.69
2022-10-17T11:30:17.138Z,62.59
2022-10-17T11:31:17.354Z,62.68
2022-10-17T11:32:17.300Z,62.78
2022-10-17T11:33:17.338Z,61.55
2022-10-17T11:34:17.256Z,62.29
2022-10-17T11:35:17.324Z,62.65
2022-10-17T11:36:17.205Z,61.76
2022-10-17T11:37:17.348Z,61.36
2022-10-17T11:38:17.081Z,60.96
2022-10-17T11:39:17.018Z,61.88
2022-10-17T11:40:19.270Z,61.55
2022-10-17T11:41:19.112Z,61.36
2022-10-17T11:42:17.071Z,61.46
2022-10-17T11:43:17.071Z,62.65
2022-10-17T11:44:17.167Z,62.26
2022-10-17T11:45:17.239Z,61.76
2022-10-17T11:46:17.095Z,60.26
2022-10-17T11:47:17.240Z,62.98
2022-10-17T11:48:17.231Z,60.46
2022-10-17T11:49:20.412Z,61.49
2022-10-17T11:52:37.400Z,61.25
2022-10-17T11:53:19.076Z,61.85
2022-10-17T11:54:16.932Z,60.46
2022-10-17T11:55:16.930Z,61.55
2022-10-17T11:56:17.005Z,60.46
2022-10-17T11:57:17.087Z,61.55
2022-10-17T11:58:17.038Z,60.86
2022-10-17T11:59:17.176Z,60.56
2022-10-17T12:00:17.031Z,60.76
2022-10-17T12:01:16.923Z,61.06
2022-10-17T12:02:16.914Z,60.76
2022-10-17T12:03:16.944Z,60.06
2022-10-17T12:04:17.294Z,59.94
2022-10-17T12:05:16.939Z,60.36
2022-10-17T12:06:17.010Z,60.73
2022-10-17T12:07:16.919Z,61.03
2022-10-17T12:08:16.824Z,60.43
2022-10-17T12:09:16.885Z,60.73
2022-10-17T12:10:16.803Z,60.63
2022-10-17T12:11:16.758Z,58.81
2022-10-17T12:12:17.033Z,60.24
2022-10-17T12:13:16.764Z,60.73
2022-10-17T12:14:16.843Z,60.24
2022-10-17T12:15:16.732Z,60.33
2022-10-17T12:16:17.589Z,61.30
2022-10-17T12:17:17.794Z,61.03
2022-10-17T12:18:16.794Z,59.70
2022-10-17T12:19:16.781Z,60.21
2022-10-17T12:20:16.864Z,60.21
2022-10-17T12:21:16.768Z,60.21
2022-10-17T12:22:16.747Z,60.21
2022-10-17T12:23:17.851Z,61.10
2022-10-17T12:24:18.879Z,61.20
2022-10-17T12:25:17.789Z,59.81
2022-10-17T12:26:16.681Z,59.91
2022-10-17T12:27:16.661Z,60.57
2022-10-17T12:28:16.616Z,59.41
2022-10-17T12:29:16.632Z,60.21
2022-10-17T12:30:16.616Z,60.33
2022-10-17T12:31:16.930Z,59.41
2022-10-17T12:32:16.587Z,60.40
2022-10-17T12:33:16.583Z,60.11
2022-10-17T12:34:16.593Z,59.95
2022-10-17T12:35:16.699Z,57.64
2022-10-17T12:36:16.675Z,58.20
2022-10-17T12:37:16.714Z,57.15
2022-10-17T12:38:16.674Z,56.73
2022-10-17T12:39:16.663Z,56.18
2022-10-17T12:40:16.607Z,53.85
2022-10-17T12:41:16.745Z,53.78
2022-10-17T12:42:16.598Z,53.53
2022-10-17T12:43:16.611Z,51.99
2022-10-17T12:44:16.797Z,51.47
2022-10-17T12:45:16.604Z,50.98
2022-10-17T12:46:16.614Z,51.97
2022-10-17T12:47:17.620Z,50.93
2022-10-17T12:48:16.494Z,50.81
2022-10-17T12:49:16.533Z,49.43
2022-10-17T12:50:16.572Z,50.04
2022-10-17T12:52:18.492Z,51.89
2022-10-17T12:53:19.161Z,52.06
2022-10-17T12:54:16.414Z,50.71
2022-10-17T12:55:16.612Z,51.10
2022-10-17T12:56:16.516Z,51.10
2022-10-17T12:57:16.636Z,53.11
2022-10-17T12:58:16.401Z,52.04
2022-10-17T12:59:16.477Z,53.70
2022-10-17T13:00:16.478Z,52.54
2022-10-17T13:01:24.287Z,52.86
2022-10-17T13:02:18.520Z,54.14
2022-10-17T13:03:16.458Z,53.38
2022-10-17T13:04:16.476Z,54.89
2022-10-17T13:05:16.452Z,55.56
2022-10-17T13:06:16.436Z,53.70
2022-10-17T13:07:16.854Z,54.69
2022-10-17T13:08:16.408Z,53.28
2022-10-17T13:09:16.322Z,53.58
2022-10-17T13:10:17.048Z,53.70
2022-10-17T13:11:16.419Z,54.00
2022-10-17T13:12:16.421Z,53.50
2022-10-17T13:13:16.459Z,54.52
2022-10-17T13:14:16.418Z,54.49
2022-10-17T13:15:16.449Z,54.62
2022-10-17T13:16:17.232Z,54.52
2022-10-17T13:17:16.353Z,54.67
2022-10-17T13:18:16.422Z,52.96
2022-10-17T13:19:16.353Z,52.44
2022-10-17T13:20:16.330Z,53.78
2022-10-17T13:21:16.334Z,53.23
2022-10-17T13:22:16.345Z,51.92
2022-10-17T13:23:16.314Z,50.71
2022-10-17T13:24:16.378Z,51.37
2022-10-17T13:25:16.229Z,51.07
2022-10-17T13:26:16.225Z,51.13
2022-10-17T13:27:16.214Z,52.14
2022-10-17T13:28:16.197Z,52.69
2022-10-17T13:29:16.195Z,53.80
2022-10-17T13:30:16.230Z,53.31
2022-10-17T13:31:16.188Z,53.67
2022-10-17T13:32:16.195Z,53.06
2022-10-17T13:33:16.222Z,52.17
2022-10-17T13:34:16.248Z,53.67
2022-10-17T13:35:16.452Z,53.58
2022-10-17T13:36:16.263Z,55.96
2022-10-17T13:37:17.254Z,55.76
2022-10-17T13:38:16.305Z,54.20
2022-10-17T13:39:17.204Z,56.21
2022-10-17T13:40:44.028Z,56.01
2022-10-17T13:41:35.322Z,54.57
2022-10-17T13:42:18.155Z,53.35
2022-10-17T13:43:16.169Z,53.42
2022-10-17T13:44:16.154Z,54.46
2022-10-17T13:45:16.177Z,51.87
2022-10-17T13:46:36.166Z,52.34
2022-10-17T13:48:16.121Z,49.57
2022-10-17T13:49:16.116Z,49.97
2022-10-17T13:50:39.459Z,49.77
2022-10-17T13:51:18.236Z,49.97
2022-10-17T13:52:16.048Z,49.92
2022-10-17T13:53:16.128Z,48.30
2022-10-17T13:54:16.122Z,47.75
2022-10-17T13:55:17.530Z,47.53
2022-10-17T13:56:27.770Z,49.77
2022-10-17T13:57:18.017Z,46.11
2022-10-17T13:58:15.992Z,45.62
2022-10-17T13:59:16.102Z,46.43
2022-10-17T14:00:16.054Z,46.55
2022-10-17T14:01:16.147Z,46.75
2022-10-17T14:02:16.121Z,46.70
2022-10-17T14:03:16.096Z,47.36
2022-10-17T14:04:20.080Z,45.57
2022-10-17T14:05:18.557Z,45.87
2022-10-17T14:06:17.041Z,45.67
2022-10-17T14:07:15.962Z,45.38
2022-10-17T14:08:21.911Z,45.72
2022-10-17T14:09:17.940Z,48.30
2022-10-17T14:10:15.947Z,47.78
2022-10-17T14:11:15.901Z,49.77
2022-10-17T14:12:15.850Z,50.66
2022-10-17T14:13:15.901Z,49.50
2022-10-17T14:14:15.900Z,48.82
2022-10-17T14:15:15.875Z,47.83
2022-10-17T14:16:16.007Z,47.26
2022-10-17T14:17:15.984Z,47.83
2022-10-17T14:18:16.070Z,48.39
2022-10-17T14:19:15.977Z,47.41
2022-10-17T14:20:48.284Z,48.27